Elmwood Park, NJ

4:53 AM EDT on August 21, 2014 (GMT -0400)
Newark International | Change Station
CLOSE
Current Station
Airport
Location: Newark,
Elevation: 30 ft
Nearby Weather Stations

Elev 30 ft 40.68 °N, 74.17 °W | Updated 1 hour ago

Light Rain
Light Rain
69 °F
Feels Like 69 °F
N
6
Wind Variable Wind from Variable

Today
High -- | Low -- °F
--% Chance of Precip.
Yesterday
High -- | Low -- °F
Precip. -- in
6:12 AM 7:46 PM
Waning Crescent, 15% visible
Pressure 30.03 in
Visibility 10.0 miles
Clouds Mostly Cloudy 4600 ft
Mostly Cloudy 6000 ft
Overcast 11000 ft
Dew Point 63 °F
Humidity 81%
Rainfall 0.00 in
Snow Depth Not available.
UV 0 out of 12
Pollen 9.70 out of 12
Air Quality Not available.
Flu Activity Not available.
METAR KEWR 210751Z VRB05KT 10SM -RA BKN046 BKN060 OVC110 21/17 A3003 RMK AO2 RAB31 SLP167 P0000 T02060172 $

More Conditions Fewer Conditions

Pressure 30.03 in
Visibility 10.0 miles
Clouds Mostly Cloudy 4600 ft
Mostly Cloudy 6000 ft
Overcast 11000 ft
Dew Point 63 °F
Humidity 81%
Rainfall 0.00 in
Snow Depth Not available.
UV 0 out of 12
Pollen 9.70 out of 12
Air Quality Not available.
Flu Activity Not available.
METAR KEWR 210751Z VRB05KT 10SM -RA BKN046 BKN060 OVC110 21/17 A3003 RMK AO2 RAB31 SLP167 P0000 T02060172 $

More Conditions Fewer Conditions

10-Day Weather Forecast

Almanac

Astronomy

Aug. 21, 2014 Rise Set
Actual Time 6:12 AM EDT 7:46 PM EDT
Civil Twilight 5:43 AM EDT 8:14 PM EDT
Nautical Twilight 5:08 AM EDT 8:49 PM EDT
Astronomical Twilight 4:31 AM EDT 9:26 PM EDT
Moon 2:39 AM EDT 5:13 PM EDT
Length of Visible Light 14h 31m
Length of Day
13h 33m
Tomorrow will be 2m 29s shorter.
Waning Crescent, 15% of the Moon is Illuminated
Today
Waning Crescent
Aug 25
New
Sep 2
First Quarter
Sep 8
Full
Sep 15
Last Quarter

Today's Extremes

State Highs State Lows

Community

WunderPhotos

Upload Photos

1,745,866 photos uploaded!

Nearby

Snow Depth

Station Depth Elevation
No new snow has been reported.

Earthquake Activity

City Distance Mag. Time & Date
No recent earthquake activity has been reported nearby.
Minimum magnitude displayed is 2.5.

Coastal Water Temperatures

Place Temperature
Sandy Hook, NJ 73.9 °F
The Battery, NY 72.0 °F
Bergen Point West Reach, NJ 73.0 °F

Nearby Weather Stations